createdAt,value
2022-12-23T00:04:11.216Z,10.63
2022-12-23T00:09:14.844Z,10.07
2022-12-23T00:14:36.569Z,9.47
2022-12-23T00:19:39.728Z,9.10
2022-12-23T00:24:43.220Z,10.37
2022-12-23T00:29:46.640Z,10.50
2022-12-23T05:33:49.638Z,11.03
2022-12-23T05:38:52.506Z,10.33
2022-12-23T05:43:55.302Z,10.60
2022-12-23T05:48:58.126Z,9.53
2022-12-23T05:54:01.207Z,10.43
2022-12-23T05:59:04.083Z,9.57
2022-12-23T06:04:07.030Z,12.33
2022-12-23T06:09:10.448Z,10.87
2022-12-23T06:14:13.358Z,9.47
2022-12-23T06:19:16.180Z,8.30
2022-12-23T06:24:19.049Z,8.63
2022-12-23T06:29:21.872Z,8.63
2022-12-23T06:34:24.825Z,10.03
2022-12-23T06:39:29.638Z,9.77
2022-12-23T06:44:32.482Z,8.73
2022-12-23T06:49:35.353Z,8.00
2022-12-23T06:54:38.162Z,8.20
2022-12-23T06:59:41.017Z,7.73
2022-12-23T07:04:43.855Z,7.90
2022-12-23T07:09:46.725Z,8.47
2022-12-23T07:14:49.563Z,10.83
2022-12-23T07:19:52.404Z,10.20
2022-12-23T07:24:55.255Z,11.37
2022-12-23T07:29:58.074Z,13.10
2022-12-23T07:35:00.877Z,15.43
2022-12-23T07:40:08.494Z,13.23
2022-12-23T07:45:12.121Z,12.83
2022-12-23T07:50:15.107Z,12.90
2022-12-23T07:55:18.096Z,11.03
2022-12-23T08:00:21.783Z,10.93
2022-12-23T08:05:24.697Z,11.57
2022-12-23T08:10:27.900Z,10.60
2022-12-23T08:15:30.747Z,10.33
2022-12-23T08:20:33.600Z,11.37
2022-12-23T08:25:36.483Z,10.47
2022-12-23T08:30:39.306Z,10.53
2022-12-23T08:35:42.131Z,11.40
2022-12-23T08:40:44.972Z,11.10
2022-12-23T08:45:47.860Z,10.70
2022-12-23T08:50:50.694Z,10.33
2022-12-23T08:55:53.530Z,10.67
2022-12-23T09:00:56.460Z,11.77
2022-12-23T09:05:59.332Z,11.63
2022-12-23T09:11:02.635Z,11.10
2022-12-23T09:16:06.108Z,10.20
2022-12-23T09:21:15.497Z,9.17
2022-12-23T09:26:21.366Z,9.33
2022-12-23T09:31:27.875Z,10.07
2022-12-23T09:36:35.421Z,9.60
2022-12-23T09:41:48.495Z,8.73
2022-12-23T09:47:00.853Z,8.80
2022-12-23T09:52:06.070Z,8.33
2022-12-23T09:57:26.861Z,8.83
2022-12-23T10:03:03.799Z,8.97
2022-12-23T10:08:29.019Z,8.60
2022-12-23T10:13:39.714Z,8.67
2022-12-23T10:18:51.815Z,10.27
2022-12-23T10:23:55.348Z,10.20
2022-12-23T10:29:18.383Z,9.67
2022-12-23T10:34:46.276Z,9.23
2022-12-23T10:40:05.387Z,9.17
2022-12-23T10:45:25.872Z,6.97
2022-12-23T10:50:51.874Z,5.83
2022-12-23T10:55:56.262Z,5.90
2022-12-23T11:01:08.454Z,6.13
2022-12-23T11:06:16.960Z,6.87
2022-12-23T11:11:19.854Z,7.03
2022-12-23T11:16:28.366Z,7.07
2022-12-23T11:21:32.756Z,5.97
2022-12-23T11:26:36.356Z,7.33
2022-12-23T11:31:39.407Z,7.10
2022-12-23T11:36:42.751Z,6.10
2022-12-23T11:41:48.238Z,6.93
2022-12-23T11:46:51.634Z,7.07
2022-12-23T11:52:10.767Z,6.90
2022-12-23T11:57:19.010Z,7.07
2022-12-23T12:02:24.627Z,9.00
2022-12-23T12:07:27.790Z,7.57
2022-12-23T12:12:30.996Z,6.73
2022-12-23T12:17:45.565Z,6.03
2022-12-23T12:23:10.809Z,6.50
2022-12-23T12:28:20.046Z,5.93
2022-12-23T12:33:28.826Z,6.43
2022-12-23T12:38:33.267Z,6.13
2022-12-23T12:43:38.407Z,6.20
2022-12-23T12:49:17.296Z,6.77
2022-12-23T12:54:57.725Z,7.33
2022-12-23T13:00:05.919Z,6.77
2022-12-23T13:05:18.428Z,7.10
2022-12-23T13:10:27.139Z,7.37
2022-12-23T13:15:44.567Z,8.60
2022-12-23T13:20:54.702Z,8.27
2022-12-23T13:26:02.822Z,9.27
2022-12-23T13:31:17.417Z,9.30
2022-12-23T13:36:29.388Z,8.73
2022-12-23T13:41:34.849Z,8.40
2022-12-23T13:46:56.615Z,8.97
2022-12-23T13:52:16.172Z,7.90
2022-12-23T13:57:18.946Z,8.60
2022-12-23T14:02:50.046Z,7.03
2022-12-23T14:07:54.556Z,8.43
2022-12-23T14:13:06.823Z,7.80
2022-12-23T14:18:42.991Z,8.60
2022-12-23T14:24:06.908Z,6.60
2022-12-23T14:29:12.848Z,6.77
2022-12-23T14:34:18.368Z,7.30
2022-12-23T14:39:32.980Z,6.67
2022-12-23T14:44:36.958Z,7.83
2022-12-23T14:49:43.063Z,7.57
2022-12-23T14:55:00.359Z,8.07
2022-12-23T15:00:10.744Z,9.23
2022-12-23T15:05:13.930Z,8.33
2022-12-23T15:10:19.289Z,8.10
2022-12-23T15:15:27.858Z,9.17
2022-12-23T15:20:30.690Z,9.50
2022-12-23T15:25:35.026Z,8.83
2022-12-23T15:30:51.500Z,8.67
2022-12-23T15:35:55.705Z,10.03
2022-12-23T15:41:06.744Z,9.60
2022-12-23T15:46:15.278Z,9.80
2022-12-23T15:51:58.254Z,10.67
2022-12-23T15:56:56.194Z,10.17
2022-12-23T16:01:59.398Z,11.70
2022-12-23T16:07:03.214Z,12.70
2022-12-23T16:12:21.440Z,11.90
2022-12-23T16:17:34.990Z,13.27
2022-12-23T16:22:38.299Z,12.80
2022-12-23T16:28:04.343Z,11.40
2022-12-23T16:33:35.167Z,11.73
2022-12-23T16:38:37.977Z,11.73
2022-12-23T16:43:47.528Z,10.70
2022-12-23T16:48:55.953Z,10.10
2022-12-23T16:53:58.971Z,11.73
2022-12-23T16:59:02.258Z,11.50
2022-12-23T17:04:06.199Z,10.83
2022-12-23T17:09:10.265Z,10.47
2022-12-23T17:14:21.460Z,12.67
2022-12-23T17:19:28.789Z,11.00
2022-12-23T17:24:32.657Z,12.27
2022-12-23T17:29:35.602Z,10.87
2022-12-23T17:34:38.600Z,11.73
2022-12-23T17:39:42.399Z,12.10
2022-12-23T17:44:45.302Z,11.97
2022-12-23T17:49:49.171Z,11.60
2022-12-23T17:54:52.365Z,10.83
2022-12-23T17:59:56.875Z,11.77
2022-12-23T18:05:00.202Z,11.80
2022-12-23T18:10:03.092Z,11.37
2022-12-23T18:15:07.546Z,10.47
2022-12-23T18:20:18.689Z,12.27
2022-12-23T18:25:25.528Z,11.73
2022-12-23T18:30:28.412Z,12.00
2022-12-23T18:35:33.556Z,11.67
2022-12-23T18:40:36.423Z,11.67
2022-12-23T18:45:41.899Z,12.33
2022-12-23T18:50:46.720Z,12.20
2022-12-23T18:55:50.599Z,14.37
2022-12-23T19:00:54.306Z,14.90
2022-12-23T19:05:58.071Z,14.80
2022-12-23T19:11:01.328Z,15.03
2022-12-23T19:16:04.480Z,12.90
2022-12-23T19:21:09.177Z,13.03
2022-12-23T19:26:13.782Z,12.43
2022-12-23T19:31:17.495Z,13.50
2022-12-23T19:36:25.149Z,12.30
2022-12-23T19:41:28.253Z,12.13
2022-12-23T19:46:31.182Z,11.67
2022-12-23T19:51:34.065Z,11.90
2022-12-23T19:56:37.003Z,11.53
2022-12-23T20:01:39.909Z,11.80
2022-12-23T20:06:43.879Z,11.93
2022-12-23T20:11:48.386Z,12.23
2022-12-23T20:16:51.221Z,11.17
2022-12-23T20:21:54.048Z,11.23
2022-12-23T20:26:57.964Z,12.80
2022-12-23T20:32:00.754Z,12.23
2022-12-23T20:37:04.643Z,10.83
2022-12-23T20:42:07.542Z,11.10
2022-12-23T20:47:10.461Z,11.27
2022-12-23T20:52:13.305Z,11.57
2022-12-23T20:57:16.174Z,12.37
2022-12-23T21:02:19.372Z,11.70
2022-12-23T21:07:22.314Z,10.07
2022-12-23T21:12:25.194Z,11.27
2022-12-23T21:17:29.646Z,9.83
2022-12-23T21:22:32.515Z,8.40
2022-12-23T21:27:35.429Z,9.30
2022-12-23T21:32:38.310Z,8.70
2022-12-23T21:37:41.144Z,8.87
2022-12-23T21:42:44.003Z,8.70
2022-12-23T21:47:46.838Z,8.47
2022-12-23T21:52:49.655Z,7.67
2022-12-23T21:57:52.502Z,8.40
2022-12-23T22:02:55.304Z,7.70
2022-12-23T22:07:58.230Z,7.83
2022-12-23T22:13:01.088Z,8.27
2022-12-23T22:18:03.957Z,9.03
2022-12-23T22:23:07.029Z,7.53
2022-12-23T22:28:09.818Z,8.63
2022-12-23T22:33:12.732Z,8.03
2022-12-23T22:38:15.541Z,8.60
2022-12-23T22:43:18.973Z,8.83
2022-12-23T22:48:21.828Z,8.47
2022-12-23T22:53:29.588Z,8.23
2022-12-23T22:58:34.481Z,8.80
2022-12-23T23:03:37.315Z,9.50
2022-12-23T23:08:42.639Z,9.80
2022-12-23T23:13:45.518Z,9.00
2022-12-23T23:18:48.643Z,9.87
2022-12-23T23:23:51.579Z,9.90
2022-12-23T23:28:55.761Z,9.17
2022-12-23T23:33:58.629Z,7.87
2022-12-23T23:39:01.534Z,8.50
2022-12-23T23:44:04.680Z,8.30
2022-12-23T23:49:07.478Z,9.13
2022-12-23T23:54:10.579Z,8.13
2022-12-23T23:59:13.471Z,7.60
